Adventure of The Seas — C6SA3 — position and weather

sailwx.info

Track history (hours):
 
Tides and Currents Weather Stations Pressure Air Temp Water Temp Dewpoint Dewpoint Depression Visibility Wind Speed Wind Dir Waves Ship Positions

Adventure of The Seas

Operator: Royal Caribbean Cruises Ltd

Last reported at 2017-Sep-03 02:17 UTC. Time now 2017-Sep-23 02:22 UTC.
Position N 18°36' W 066°01'.
Warning: this ship's position is 20 days out of date.

Type: Passenger vessel. MMSI: 311263000.

Date/timePositionNaut miles runAvg speedWind from/ knotsBaromVisibWave heightAir tempDewpointWater temp
2017-Sep-03 02:17N 18°36' W 066°01'2 7.9
2017-Sep-03 02:01N 18°35' W 066°03'4 7.7
2017-Sep-03 01:30N 18°32' W 066°06'4 7.3
2017-Sep-03 01:01N 18°29' W 066°08'2 2.8
2017-Sep-03 00:17N 18°28' W 066°06'0 0.0
2017-Sep-02 23:05N 18°28' W 066°06'0 0.0
2017-Sep-02 22:02N 18°28' W 066°06'0 0.0
2017-Sep-02 21:41N 18°28' W 066°06'0 0.0
2017-Sep-02 16:11N 18°28' W 066°06'0 0.0
2017-Sep-02 09:23N 18°28' W 066°06'1 2.2
2017-Sep-02 09:00N 18°27' W 066°07'610.7
2017-Sep-02 08:29N 18°33' W 066°06'7012.8
2017-Sep-02 03:03N 18°11' W 064°56'614.3
2017-Sep-02 02:38N 18°08' W 064°50'27914.5
2017-Sep-01 07:21N 14°43' W 061°33'614.2
2017-Sep-01 06:53N 14°39' W 061°28'513.8
2017-Sep-01 06:30N 14°35' W 061°24'915.7
2017-Sep-01 05:56N 14°30' W 061°16'715.5
2017-Sep-01 05:30N 14°26' W 061°11'714.6
2017-Sep-01 05:00N 14°21' W 061°05'815.0
2017-Sep-01 04:30N 14°17' W 060°59'815.4
2017-Sep-01 04:00N 14°12' W 060°52'814.9
2017-Sep-01 03:29N 14°07' W 060°46'22 0.5
2017-Aug-30 11:28N 14°08' W 061°08'13014.3
2017-Aug-30 02:22N 16°07' W 062°05'514.3
2017-Aug-30 02:00N 16°12' W 062°05'714.2
2017-Aug-30 01:30N 16°19' W 062°05'714.4
2017-Aug-30 01:00N 16°26' W 062°04'714.2
2017-Aug-30 00:30N 16°33' W 062°04'714.4
2017-Aug-30 00:00N 16°40' W 062°04'714.5
2017-Aug-29 23:30N 16°48' W 062°03'815.0
2017-Aug-29 23:00N 16°55' W 062°02'714.8
2017-Aug-29 22:30N 17°02' W 062°01'612.1
2017-Aug-29 22:01N 17°08' W 061°59'611.0
2017-Aug-29 21:31N 17°08' W 061°53'3 5.3
2017-Aug-29 21:01N 17°07' W 061°51'0 0.0
2017-Aug-29 20:29N 17°07' W 061°51'0 0.0
2017-Aug-29 19:59N 17°07' W 061°51'0 0.0
2017-Aug-29 19:29N 17°07' W 061°51'0 0.0
2017-Aug-29 18:59N 17°07' W 061°51'0 0.0
2017-Aug-29 18:29N 17°07' W 061°51'0 0.0
2017-Aug-29 17:59N 17°07' W 061°51'0 0.0
2017-Aug-29 17:29N 17°07' W 061°51'0 0.0
2017-Aug-29 16:59N 17°07' W 061°51'0 0.0
2017-Aug-29 16:29N 17°07' W 061°51'0 0.0
2017-Aug-29 15:59N 17°07' W 061°51'0 0.0
2017-Aug-29 15:29N 17°07' W 061°51'0 0.0
2017-Aug-29 14:56N 17°07' W 061°51'0 0.0
2017-Aug-29 14:29N 17°07' W 061°51'0 0.0
2017-Aug-29 13:59N 17°07' W 061°51'0 0.0
2017-Aug-29 13:29N 17°07' W 061°51'0 0.0
2017-Aug-29 12:59N 17°07' W 061°51'0 0.0
2017-Aug-29 12:29N 17°07' W 061°51'0 0.0
2017-Aug-29 11:59N 17°07' W 061°51'1 2.1
2017-Aug-29 11:30N 17°08' W 061°52'4 8.7
2017-Aug-29 11:00N 17°09' W 061°56'510.3
2017-Aug-29 10:30N 17°12' W 062°01'510.1
2017-Aug-29 10:00N 17°14' W 062°05'510.5
2017-Aug-29 09:30N 17°17' W 062°10'510.3
2017-Aug-29 09:00N 17°19' W 062°15'510.2
2017-Aug-29 08:30N 17°22' W 062°20'510.0
2017-Aug-29 08:00N 17°24' W 062°24'510.6
2017-Aug-29 07:30N 17°28' W 062°28'510.6
2017-Aug-29 07:00N 17°32' W 062°32'710.4
2017-Aug-29 06:21N 17°37' W 062°37'30 1.0
2017-Aug-27 23:43N 17°47' W 063°07'2 7.8
2017-Aug-27 23:25N 17°49' W 063°07'3 5.8
2017-Aug-27 22:59N 17°52' W 063°07'3 5.4
2017-Aug-27 22:29N 17°55' W 063°06'3 5.3
2017-Aug-27 22:00N 17°57' W 063°06'3 5.9
2017-Aug-27 21:29N 18°00' W 063°05'2 0.2
2017-Aug-27 11:23N 18°00' W 063°03'411.5
2017-Aug-27 11:00N 18°01' W 063°07'918.2
2017-Aug-27 10:30N 18°01' W 063°17'918.1
2017-Aug-27 10:00N 18°03' W 063°26'918.4
2017-Aug-27 09:31N 18°04' W 063°36'6518.5
2017-Aug-27 06:00N 18°11' W 064°44'918.5
2017-Aug-27 05:30N 18°12' W 064°53'6817.7
2017-Aug-27 01:38N 18°35' W 066°02'218.5
2017-Aug-27 01:30N 18°34' W 066°04'713.2
2017-Aug-27 01:00N 18°29' W 066°08'2 3.5
2017-Aug-27 00:28N 18°28' W 066°06'0 0.0
2017-Aug-26 23:58N 18°28' W 066°06'0 0.0
2017-Aug-26 23:16N 18°28' W 066°06'0 0.0
2017-Aug-26 22:52N 18°28' W 066°06'0 0.0
2017-Aug-26 22:28N 18°28' W 066°06'0 0.0
2017-Aug-26 21:58N 18°28' W 066°06'0 0.0
2017-Aug-26 21:04N 18°28' W 066°06'0 0.0
2017-Aug-26 20:34N 18°28' W 066°06'0 0.0
2017-Aug-26 20:16N 18°28' W 066°06'0 0.0
2017-Aug-26 19:58N 18°28' W 066°06'0 0.0
2017-Aug-26 19:22N 18°28' W 066°06'0 0.0
2017-Aug-26 18:34N 18°28' W 066°06'0 0.0
2017-Aug-26 17:46N 18°28' W 066°06'0 0.0
2017-Aug-26 17:16N 18°28' W 066°06'0 0.0
2017-Aug-26 16:58N 18°28' W 066°06'0 0.0
2017-Aug-26 16:10N 18°28' W 066°06'0 0.0
2017-Aug-26 15:34N 18°28' W 066°06'0 0.0
2017-Aug-26 15:28N 18°28' W 066°06'0 0.0
2017-Aug-26 14:46N 18°28' W 066°06'0 0.0
2017-Aug-26 13:52N 18°28' W 066°06'0 0.0
2017-Aug-26 13:22N 18°28' W 066°06'0 0.0
2017-Aug-26 12:34N 18°28' W 066°06'0 0.0
2017-Aug-26 12:25N 18°28' W 066°06'0 0.0
2017-Aug-26 11:40N 18°28' W 066°06'0 0.0
2017-Aug-26 11:28N 18°28' W 066°06'0 0.0
2017-Aug-26 10:10N 18°28' W 066°06'0 0.0
2017-Aug-26 09:58N 18°28' W 066°06'0 0.0
2017-Aug-26 09:31N 18°28' W 066°06'2 3.2
2017-Aug-26 09:00N 18°28' W 066°08'812.3
2017-Aug-26 08:22N 18°35' W 066°03'13915.5
2017-Aug-25 23:23N 18°04' W 063°40'718.9
2017-Aug-25 23:00N 18°03' W 063°33'918.7
2017-Aug-25 22:30N 18°02' W 063°23'918.3
2017-Aug-25 22:00N 18°01' W 063°13'10 0.9
2017-Aug-25 11:29N 18°00' W 063°03'5 9.3
2017-Aug-25 10:58N 17°59' W 063°08'714.2
2017-Aug-25 10:30N 17°57' W 063°14'813.8
2017-Aug-25 09:55N 17°54' W 063°22'513.4
2017-Aug-25 09:30N 17°52' W 063°28'  
Track history (hours):
 
Tides and Currents Weather Stations Pressure Air Temp Water Temp Dewpoint Dewpoint Depression Visibility Wind Speed Wind Dir Waves Ship Positions

Adventure of The Seas

Operator: Royal Caribbean Cruises Ltd

Last reported at 2017-Sep-03 02:17 UTC. Time now 2017-Sep-23 02:22 UTC.
Position N 18°36' W 066°01'.
Warning: this ship's position is 20 days out of date.

Type: Passenger vessel. MMSI: 311263000.

Date/timePositionNaut miles runAvg speedWind from/ knotsBaromVisibWave heightAir tempDewpointWater temp
2017-Sep-03 02:17N 18°36' W 066°01'2 7.9
2017-Sep-03 02:01N 18°35' W 066°03'4 7.7
2017-Sep-03 01:30N 18°32' W 066°06'4 7.3
2017-Sep-03 01:01N 18°29' W 066°08'2 2.8
2017-Sep-03 00:17N 18°28' W 066°06'0 0.0
2017-Sep-02 23:05N 18°28' W 066°06'0 0.0
2017-Sep-02 22:02N 18°28' W 066°06'0 0.0
2017-Sep-02 21:41N 18°28' W 066°06'0 0.0
2017-Sep-02 16:11N 18°28' W 066°06'0 0.0
2017-Sep-02 09:23N 18°28' W 066°06'1 2.2
2017-Sep-02 09:00N 18°27' W 066°07'610.7
2017-Sep-02 08:29N 18°33' W 066°06'7012.8
2017-Sep-02 03:03N 18°11' W 064°56'614.3
2017-Sep-02 02:38N 18°08' W 064°50'27914.5
2017-Sep-01 07:21N 14°43' W 061°33'614.2
2017-Sep-01 06:53N 14°39' W 061°28'513.8
2017-Sep-01 06:30N 14°35' W 061°24'915.7
2017-Sep-01 05:56N 14°30' W 061°16'715.5
2017-Sep-01 05:30N 14°26' W 061°11'714.6
2017-Sep-01 05:00N 14°21' W 061°05'815.0
2017-Sep-01 04:30N 14°17' W 060°59'815.4
2017-Sep-01 04:00N 14°12' W 060°52'814.9
2017-Sep-01 03:29N 14°07' W 060°46'22 0.5
2017-Aug-30 11:28N 14°08' W 061°08'13014.3
2017-Aug-30 02:22N 16°07' W 062°05'514.3
2017-Aug-30 02:00N 16°12' W 062°05'714.2
2017-Aug-30 01:30N 16°19' W 062°05'714.4
2017-Aug-30 01:00N 16°26' W 062°04'714.2
2017-Aug-30 00:30N 16°33' W 062°04'714.4
2017-Aug-30 00:00N 16°40' W 062°04'714.5
2017-Aug-29 23:30N 16°48' W 062°03'815.0
2017-Aug-29 23:00N 16°55' W 062°02'714.8
2017-Aug-29 22:30N 17°02' W 062°01'612.1
2017-Aug-29 22:01N 17°08' W 061°59'611.0
2017-Aug-29 21:31N 17°08' W 061°53'3 5.3
2017-Aug-29 21:01N 17°07' W 061°51'0 0.0
2017-Aug-29 20:29N 17°07' W 061°51'0 0.0
2017-Aug-29 19:59N 17°07' W 061°51'0 0.0
2017-Aug-29 19:29N 17°07' W 061°51'0 0.0
2017-Aug-29 18:59N 17°07' W 061°51'0 0.0
2017-Aug-29 18:29N 17°07' W 061°51'0 0.0
2017-Aug-29 17:59N 17°07' W 061°51'0 0.0
2017-Aug-29 17:29N 17°07' W 061°51'0 0.0
2017-Aug-29 16:59N 17°07' W 061°51'0 0.0
2017-Aug-29 16:29N 17°07' W 061°51'0 0.0
2017-Aug-29 15:59N 17°07' W 061°51'0 0.0
2017-Aug-29 15:29N 17°07' W 061°51'0 0.0
2017-Aug-29 14:56N 17°07' W 061°51'0 0.0
2017-Aug-29 14:29N 17°07' W 061°51'0 0.0
2017-Aug-29 13:59N 17°07' W 061°51'0 0.0
2017-Aug-29 13:29N 17°07' W 061°51'0 0.0
2017-Aug-29 12:59N 17°07' W 061°51'0 0.0
2017-Aug-29 12:29N 17°07' W 061°51'0 0.0
2017-Aug-29 11:59N 17°07' W 061°51'1 2.1
2017-Aug-29 11:30N 17°08' W 061°52'4 8.7
2017-Aug-29 11:00N 17°09' W 061°56'510.3
2017-Aug-29 10:30N 17°12' W 062°01'510.1
2017-Aug-29 10:00N 17°14' W 062°05'510.5
2017-Aug-29 09:30N 17°17' W 062°10'510.3
2017-Aug-29 09:00N 17°19' W 062°15'510.2
2017-Aug-29 08:30N 17°22' W 062°20'510.0
2017-Aug-29 08:00N 17°24' W 062°24'510.6
2017-Aug-29 07:30N 17°28' W 062°28'510.6
2017-Aug-29 07:00N 17°32' W 062°32'710.4
2017-Aug-29 06:21N 17°37' W 062°37'30 1.0
2017-Aug-27 23:43N 17°47' W 063°07'2 7.8
2017-Aug-27 23:25N 17°49' W 063°07'3 5.8
2017-Aug-27 22:59N 17°52' W 063°07'3 5.4
2017-Aug-27 22:29N 17°55' W 063°06'3 5.3
2017-Aug-27 22:00N 17°57' W 063°06'3 5.9
2017-Aug-27 21:29N 18°00' W 063°05'2 0.2
2017-Aug-27 11:23N 18°00' W 063°03'411.5
2017-Aug-27 11:00N 18°01' W 063°07'918.2
2017-Aug-27 10:30N 18°01' W 063°17'918.1
2017-Aug-27 10:00N 18°03' W 063°26'918.4
2017-Aug-27 09:31N 18°04' W 063°36'6518.5
2017-Aug-27 06:00N 18°11' W 064°44'918.5
2017-Aug-27 05:30N 18°12' W 064°53'6817.7
2017-Aug-27 01:38N 18°35' W 066°02'218.5
2017-Aug-27 01:30N 18°34' W 066°04'713.2
2017-Aug-27 01:00N 18°29' W 066°08'2 3.5
2017-Aug-27 00:28N 18°28' W 066°06'0 0.0
2017-Aug-26 23:58N 18°28' W 066°06'0 0.0
2017-Aug-26 23:16N 18°28' W 066°06'0 0.0
2017-Aug-26 22:52N 18°28' W 066°06'0 0.0
2017-Aug-26 22:28N 18°28' W 066°06'0 0.0
2017-Aug-26 21:58N 18°28' W 066°06'0 0.0
2017-Aug-26 21:04N 18°28' W 066°06'0 0.0
2017-Aug-26 20:34N 18°28' W 066°06'0 0.0
2017-Aug-26 20:16N 18°28' W 066°06'0 0.0
2017-Aug-26 19:58N 18°28' W 066°06'0 0.0
2017-Aug-26 19:22N 18°28' W 066°06'0 0.0
2017-Aug-26 18:34N 18°28' W 066°06'0 0.0
2017-Aug-26 17:46N 18°28' W 066°06'0 0.0
2017-Aug-26 17:16N 18°28' W 066°06'0 0.0
2017-Aug-26 16:58N 18°28' W 066°06'0 0.0
2017-Aug-26 16:10N 18°28' W 066°06'0 0.0
2017-Aug-26 15:34N 18°28' W 066°06'0 0.0
2017-Aug-26 15:28N 18°28' W 066°06'0 0.0
2017-Aug-26 14:46N 18°28' W 066°06'0 0.0
2017-Aug-26 13:52N 18°28' W 066°06'0 0.0
2017-Aug-26 13:22N 18°28' W 066°06'0 0.0
2017-Aug-26 12:34N 18°28' W 066°06'0 0.0
2017-Aug-26 12:25N 18°28' W 066°06'0 0.0
2017-Aug-26 11:40N 18°28' W 066°06'0 0.0
2017-Aug-26 11:28N 18°28' W 066°06'0 0.0
2017-Aug-26 10:10N 18°28' W 066°06'0 0.0
2017-Aug-26 09:58N 18°28' W 066°06'0 0.0
2017-Aug-26 09:31N 18°28' W 066°06'2 3.2
2017-Aug-26 09:00N 18°28' W 066°08'812.3
2017-Aug-26 08:22N 18°35' W 066°03'13915.5
2017-Aug-25 23:23N 18°04' W 063°40'718.9
2017-Aug-25 23:00N 18°03' W 063°33'918.7
2017-Aug-25 22:30N 18°02' W 063°23'918.3
2017-Aug-25 22:00N 18°01' W 063°13'10 0.9
2017-Aug-25 11:29N 18°00' W 063°03'5 9.3
2017-Aug-25 10:58N 17°59' W 063°08'714.2
2017-Aug-25 10:30N 17°57' W 063°14'813.8
2017-Aug-25 09:55N 17°54' W 063°22'513.4
2017-Aug-25 09:30N 17°52' W 063°28'  

Dump ship's entire track history